sensor_id;sensor_type;location;lat;lon;timestamp;pressure;altitude;pressure_sealevel;temperature;humidity
77321;BME280;66382;52.252;8.780;2024-01-06T00:00:44;99196.81;;;7.49;73.87
77321;BME280;66382;52.252;8.780;2024-01-06T00:03:10;99204.81;;;7.49;74.00
77321;BME280;66382;52.252;8.780;2024-01-06T00:05:35;99212.22;;;7.53;74.15
77321;BME280;66382;52.252;8.780;2024-01-06T00:08:02;99212.44;;;7.52;74.63
77321;BME280;66382;52.252;8.780;2024-01-06T00:10:28;99219.22;;;7.54;73.91
77321;BME280;66382;52.252;8.780;2024-01-06T00:12:53;99217.16;;;7.57;74.73
77321;BME280;66382;52.252;8.780;2024-01-06T00:15:19;99215.50;;;7.56;73.96
77321;BME280;66382;52.252;8.780;2024-01-06T00:17:44;99215.50;;;7.56;73.84
77321;BME280;66382;52.252;8.780;2024-01-06T00:20:10;99218.00;;;7.57;74.49
77321;BME280;66382;52.252;8.780;2024-01-06T00:22:36;99215.09;;;7.59;73.93
77321;BME280;66382;52.252;8.780;2024-01-06T00:25:03;99221.88;;;7.61;73.86
77321;BME280;66382;52.252;8.780;2024-01-06T00:27:29;99215.31;;;7.64;74.50
77321;BME280;66382;52.252;8.780;2024-01-06T00:29:54;99222.31;;;7.65;73.86
77321;BME280;66382;52.252;8.780;2024-01-06T00:32:19;99220.28;;;7.67;74.48
77321;BME280;66382;52.252;8.780;2024-01-06T00:34:45;99236.06;;;7.68;74.12
77321;BME280;66382;52.252;8.780;2024-01-06T00:37:10;99228.69;;;7.70;73.74
77321;BME280;66382;52.252;8.780;2024-01-06T00:39:36;99235.88;;;7.70;74.75
77321;BME280;66382;52.252;8.780;2024-01-06T00:42:03;99238.53;;;7.70;74.46
77321;BME280;66382;52.252;8.780;2024-01-06T00:44:28;99240.38;;;7.69;74.37
77321;BME280;66382;52.252;8.780;2024-01-06T00:46:54;99238.72;;;7.68;73.71
77321;BME280;66382;52.252;8.780;2024-01-06T00:49:19;99239.75;;;7.67;74.24
77321;BME280;66382;52.252;8.780;2024-01-06T00:51:45;99245.50;;;7.64;73.68
77321;BME280;66382;52.252;8.780;2024-01-06T00:54:10;99246.50;;;7.63;74.04
77321;BME280;66382;52.252;8.780;2024-01-06T00:56:35;99251.22;;;7.61;74.17
77321;BME280;66382;52.252;8.780;2024-01-06T00:59:02;99246.28;;;7.58;74.02
77321;BME280;66382;52.252;8.780;2024-01-06T01:01:28;99255.53;;;7.56;73.88
77321;BME280;66382;52.252;8.780;2024-01-06T01:03:53;99257.38;;;7.55;73.17
77321;BME280;66382;52.252;8.780;2024-01-06T01:06:19;99258.38;;;7.47;73.81
77321;BME280;66382;52.252;8.780;2024-01-06T01:08:44;99262.03;;;7.40;74.17
77321;BME280;66382;52.252;8.780;2024-01-06T01:11:10;99267.13;;;7.35;73.24
77321;BME280;66382;52.252;8.780;2024-01-06T01:13:36;99267.91;;;7.28;73.79
77321;BME280;66382;52.252;8.780;2024-01-06T01:16:03;99268.50;;;7.24;73.20
77321;BME280;66382;52.252;8.780;2024-01-06T01:18:29;99278.28;;;7.17;73.00
77321;BME280;66382;52.252;8.780;2024-01-06T01:20:54;99287.91;;;7.11;73.08
77321;BME280;66382;52.252;8.780;2024-01-06T01:23:20;99285.81;;;7.06;73.55
77321;BME280;66382;52.252;8.780;2024-01-06T01:25:45;99290.91;;;7.01;73.22
77321;BME280;66382;52.252;8.780;2024-01-06T01:28:11;99289.06;;;7.02;74.07
77321;BME280;66382;52.252;8.780;2024-01-06T01:30:36;99298.72;;;7.03;74.22
77321;BME280;66382;52.252;8.780;2024-01-06T01:33:04;99303.66;;;7.06;74.62
77321;BME280;66382;52.252;8.780;2024-01-06T01:35:29;99305.53;;;7.12;74.60
77321;BME280;66382;52.252;8.780;2024-01-06T01:37:55;99301.28;;;7.18;74.44
77321;BME280;66382;52.252;8.780;2024-01-06T01:40:20;99307.84;;;7.22;73.91
77321;BME280;66382;52.252;8.780;2024-01-06T01:42:45;99311.97;;;7.24;73.77
77321;BME280;66382;52.252;8.780;2024-01-06T01:45:11;99312.59;;;7.26;74.13
77321;BME280;66382;52.252;8.780;2024-01-06T01:47:37;99315.91;;;7.28;74.75
77321;BME280;66382;52.252;8.780;2024-01-06T01:50:05;99313.84;;;7.30;74.67
77321;BME280;66382;52.252;8.780;2024-01-06T01:52:31;99311.81;;;7.32;74.35
77321;BME280;66382;52.252;8.780;2024-01-06T01:54:57;99316.34;;;7.32;74.02
77321;BME280;66382;52.252;8.780;2024-01-06T01:57:24;99312.81;;;7.31;74.54
77321;BME280;66382;52.252;8.780;2024-01-06T01:59:51;99315.50;;;7.31;74.64
77321;BME280;66382;52.252;8.780;2024-01-06T02:02:16;99317.16;;;7.32;74.36
77321;BME280;66382;52.252;8.780;2024-01-06T02:04:45;99313.84;;;7.30;74.51
77321;BME280;66382;52.252;8.780;2024-01-06T02:07:11;99307.91;;;7.28;74.34
77321;BME280;66382;52.252;8.780;2024-01-06T02:09:37;99312.81;;;7.31;74.69
77321;BME280;66382;52.252;8.780;2024-01-06T02:12:03;99315.50;;;7.31;74.70
77321;BME280;66382;52.252;8.780;2024-01-06T02:14:28;99316.34;;;7.32;74.29
77321;BME280;66382;52.252;8.780;2024-01-06T02:16:54;99318.59;;;7.35;74.40
77321;BME280;66382;52.252;8.780;2024-01-06T02:19:19;99320.25;;;7.36;74.02
77321;BME280;66382;52.252;8.780;2024-01-06T02:21:48;99316.75;;;7.36;74.11
77321;BME280;66382;52.252;8.780;2024-01-06T02:24:14;99319.41;;;7.36;74.55
77321;BME280;66382;52.252;8.780;2024-01-06T02:26:39;99316.34;;;7.32;74.10
77321;BME280;66382;52.252;8.780;2024-01-06T02:29:05;99320.63;;;7.33;73.75
77321;BME280;66382;52.252;8.780;2024-01-06T02:31:30;99314.69;;;7.31;73.64
77321;BME280;66382;52.252;8.780;2024-01-06T02:33:56;99318.38;;;7.30;74.85
77321;BME280;66382;52.252;8.780;2024-01-06T02:36:21;99325.75;;;7.28;73.69
77321;BME280;66382;52.252;8.780;2024-01-06T02:38:48;99325.75;;;7.28;74.16
77321;BME280;66382;52.252;8.780;2024-01-06T02:41:13;99330.25;;;7.27;73.73
77321;BME280;66382;52.252;8.780;2024-01-06T02:43:39;99337.22;;;7.28;73.82
77321;BME280;66382;52.252;8.780;2024-01-06T02:46:04;99334.75;;;7.27;74.86
77321;BME280;66382;52.252;8.780;2024-01-06T02:48:30;99336.22;;;7.29;73.86
77321;BME280;66382;52.252;8.780;2024-01-06T02:50:55;99335.59;;;7.27;73.80
77321;BME280;66382;52.252;8.780;2024-01-06T02:53:20;99341.56;;;7.29;74.93
77321;BME280;66382;52.252;8.780;2024-01-06T02:55:47;99338.03;;;7.29;73.76
77321;BME280;66382;52.252;8.780;2024-01-06T02:58:13;99337.84;;;7.30;74.41
77321;BME280;66382;52.252;8.780;2024-01-06T03:00:38;99335.19;;;7.30;74.55
77321;BME280;66382;52.252;8.780;2024-01-06T03:03:04;99339.06;;;7.28;73.71
77321;BME280;66382;52.252;8.780;2024-01-06T03:05:30;99337.81;;;7.24;73.45
77321;BME280;66382;52.252;8.780;2024-01-06T03:07:55;99346.84;;;7.23;73.91
77321;BME280;66382;52.252;8.780;2024-01-06T03:10:21;99352.16;;;7.23;74.39
77321;BME280;66382;52.252;8.780;2024-01-06T03:12:48;99358.94;;;7.25;73.93
77321;BME280;66382;52.252;8.780;2024-01-06T03:15:14;99353.78;;;7.24;73.66
77321;BME280;66382;52.252;8.780;2024-01-06T03:17:39;99366.31;;;7.23;73.87
77321;BME280;66382;52.252;8.780;2024-01-06T03:20:06;99365.03;;;7.19;73.73
77321;BME280;66382;52.252;8.780;2024-01-06T03:22:31;99367.09;;;7.17;74.40
77321;BME280;66382;52.252;8.780;2024-01-06T03:24:57;99376.91;;;7.17;73.42
77321;BME280;66382;52.252;8.780;2024-01-06T03:27:22;99378.59;;;7.18;73.86
77321;BME280;66382;52.252;8.780;2024-01-06T03:29:49;99384.09;;;7.16;74.38
77321;BME280;66382;52.252;8.780;2024-01-06T03:32:15;99382.25;;;7.17;74.18
77321;BME280;66382;52.252;8.780;2024-01-06T03:34:40;99383.09;;;7.17;74.34
77321;BME280;66382;52.252;8.780;2024-01-06T03:37:06;99381.63;;;7.15;73.82
77321;BME280;66382;52.252;8.780;2024-01-06T03:39:31;99392.09;;;7.16;73.91
77321;BME280;66382;52.252;8.780;2024-01-06T03:41:57;99399.09;;;7.17;73.09
77321;BME280;66382;52.252;8.780;2024-01-06T03:44:22;99390.25;;;7.17;73.24
77321;BME280;66382;52.252;8.780;2024-01-06T03:46:49;99401.75;;;7.17;73.42
77321;BME280;66382;52.252;8.780;2024-01-06T03:49:14;99409.75;;;7.17;74.05
77321;BME280;66382;52.252;8.780;2024-01-06T03:51:40;99415.25;;;7.16;73.79
77321;BME280;66382;52.252;8.780;2024-01-06T03:54:05;99409.94;;;7.16;73.37
77321;BME280;66382;52.252;8.780;2024-01-06T03:56:31;99412.41;;;7.17;73.68
77321;BME280;66382;52.252;8.780;2024-01-06T03:58:56;99405.03;;;7.19;73.70
77321;BME280;66382;52.252;8.780;2024-01-06T04:01:21;99414.69;;;7.20;73.72
77321;BME280;66382;52.252;8.780;2024-01-06T04:03:48;99415.09;;;7.17;73.40
77321;BME280;66382;52.252;8.780;2024-01-06T04:06:14;99419.19;;;7.20;74.29
77321;BME280;66382;52.252;8.780;2024-01-06T04:08:39;99418.00;;;7.22;73.39
77321;BME280;66382;52.252;8.780;2024-01-06T04:11:05;99418.59;;;7.24;73.74
77321;BME280;66382;52.252;8.780;2024-01-06T04:13:30;99422.28;;;7.23;73.55
77321;BME280;66382;52.252;8.780;2024-01-06T04:15:56;99424.94;;;7.23;74.42
77321;BME280;66382;52.252;8.780;2024-01-06T04:18:21;99427.44;;;7.25;73.65
77321;BME280;66382;52.252;8.780;2024-01-06T04:20:48;99428.25;;;7.25;74.06
77321;BME280;66382;52.252;8.780;2024-01-06T04:23:13;99431.09;;;7.24;73.14
77321;BME280;66382;52.252;8.780;2024-01-06T04:25:39;99436.25;;;7.25;73.24
77321;BME280;66382;52.252;8.780;2024-01-06T04:28:04;99438.09;;;7.25;73.59
77321;BME280;66382;52.252;8.780;2024-01-06T04:30:30;99439.75;;;7.26;74.15
77321;BME280;66382;52.252;8.780;2024-01-06T04:32:55;99438.91;;;7.25;74.45
77321;BME280;66382;52.252;8.780;2024-01-06T04:35:21;99441.59;;;7.25;73.91
77321;BME280;66382;52.252;8.780;2024-01-06T04:37:48;99447.09;;;7.24;73.41
77321;BME280;66382;52.252;8.780;2024-01-06T04:40:13;99445.84;;;7.20;73.32
77321;BME280;66382;52.252;8.780;2024-01-06T04:42:39;99448.88;;;7.17;73.46
77321;BME280;66382;52.252;8.780;2024-01-06T04:45:05;99448.88;;;7.17;73.98
77321;BME280;66382;52.252;8.780;2024-01-06T04:47:30;99454.44;;;7.15;74.38
77321;BME280;66382;52.252;8.780;2024-01-06T04:49:56;99461.78;;;7.13;73.49
77321;BME280;66382;52.252;8.780;2024-01-06T04:52:22;99458.66;;;7.09;74.36
77321;BME280;66382;52.252;8.780;2024-01-06T04:54:48;99465.00;;;7.08;74.30
77321;BME280;66382;52.252;8.780;2024-01-06T04:57:14;99465.84;;;7.09;73.69
77321;BME280;66382;52.252;8.780;2024-01-06T04:59:39;99465.84;;;7.09;74.01
77321;BME280;66382;52.252;8.780;2024-01-06T05:02:05;99468.88;;;7.06;73.49
77321;BME280;66382;52.252;8.780;2024-01-06T05:04:31;99477.13;;;7.11;74.67
77321;BME280;66382;52.252;8.780;2024-01-06T05:06:56;99478.97;;;7.10;73.78
77321;BME280;66382;52.252;8.780;2024-01-06T05:09:22;99477.13;;;7.11;74.07
77321;BME280;66382;52.252;8.780;2024-01-06T05:11:49;99481.66;;;7.10;74.66
77321;BME280;66382;52.252;8.780;2024-01-06T05:14:14;99478.16;;;7.10;74.94
77321;BME280;66382;52.252;8.780;2024-01-06T05:16:39;99480.81;;;7.10;74.73
77321;BME280;66382;52.252;8.780;2024-01-06T05:19:05;99482.47;;;7.11;75.04
77321;BME280;66382;52.252;8.780;2024-01-06T05:21:31;99488.81;;;7.10;74.97
77321;BME280;66382;52.252;8.780;2024-01-06T05:23:56;99484.94;;;7.13;74.06
77321;BME280;66382;52.252;8.780;2024-01-06T05:26:22;99489.88;;;7.16;74.11
77321;BME280;66382;52.252;8.780;2024-01-06T05:28:49;99492.38;;;7.17;74.40
77321;BME280;66382;52.252;8.780;2024-01-06T05:31:14;99496.69;;;7.18;74.82
77321;BME280;66382;52.252;8.780;2024-01-06T05:33:40;99494.84;;;7.19;74.45
77321;BME280;66382;52.252;8.780;2024-01-06T05:36:05;99489.72;;;7.17;74.04
77321;BME280;66382;52.252;8.780;2024-01-06T05:38:31;99502.66;;;7.20;74.33
77321;BME280;66382;52.252;8.780;2024-01-06T05:40:56;99506.13;;;7.21;74.31
77321;BME280;66382;52.252;8.780;2024-01-06T05:43:22;99504.94;;;7.23;74.80
77321;BME280;66382;52.252;8.780;2024-01-06T05:45:49;99505.75;;;7.24;74.25
77321;BME280;66382;52.252;8.780;2024-01-06T05:48:14;99513.56;;;7.25;73.84
77321;BME280;66382;52.252;8.780;2024-01-06T05:50:40;99518.91;;;7.25;74.14
77321;BME280;66382;52.252;8.780;2024-01-06T05:53:05;99514.56;;;7.24;74.05
77321;BME280;66382;52.252;8.780;2024-01-06T05:55:31;99520.09;;;7.23;74.56
77321;BME280;66382;52.252;8.780;2024-01-06T05:57:56;99524.78;;;7.21;73.66
77321;BME280;66382;52.252;8.780;2024-01-06T06:00:22;99534.19;;;7.17;73.46
77321;BME280;66382;52.252;8.780;2024-01-06T06:02:48;99532.72;;;7.14;73.57
77321;BME280;66382;52.252;8.780;2024-01-06T06:05:14;99541.09;;;7.11;74.03
77321;BME280;66382;52.252;8.780;2024-01-06T06:07:39;99533.50;;;7.08;73.04
77321;BME280;66382;52.252;8.780;2024-01-06T06:10:07;99553.53;;;7.04;73.95
77321;BME280;66382;52.252;8.780;2024-01-06T06:12:32;99556.41;;;7.02;74.23
77321;BME280;66382;52.252;8.780;2024-01-06T06:14:58;99549.59;;;7.00;74.15
77321;BME280;66382;52.252;8.780;2024-01-06T06:17:23;99567.63;;;6.98;74.05
77321;BME280;66382;52.252;8.780;2024-01-06T06:19:50;99568.81;;;6.95;74.33
77321;BME280;66382;52.252;8.780;2024-01-06T06:22:15;99568.81;;;6.95;73.25
77321;BME280;66382;52.252;8.780;2024-01-06T06:24:41;99566.16;;;6.95;73.70
77321;BME280;66382;52.252;8.780;2024-01-06T06:27:06;99574.97;;;6.96;73.43
77321;BME280;66382;52.252;8.780;2024-01-06T06:29:32;99571.56;;;6.87;73.34
77321;BME280;66382;52.252;8.780;2024-01-06T06:31:57;99585.38;;;6.91;73.59
77321;BME280;66382;52.252;8.780;2024-01-06T06:34:23;99586.75;;;6.86;73.10
77321;BME280;66382;52.252;8.780;2024-01-06T06:36:49;99594.75;;;6.86;73.91
77321;BME280;66382;52.252;8.780;2024-01-06T06:39:15;99598.44;;;6.85;73.32
77321;BME280;66382;52.252;8.780;2024-01-06T06:41:40;99598.78;;;6.82;73.78
77321;BME280;66382;52.252;8.780;2024-01-06T06:44:06;99595.50;;;6.80;73.85
77321;BME280;66382;52.252;8.780;2024-01-06T06:46:31;99601.81;;;6.79;73.69
77321;BME280;66382;52.252;8.780;2024-01-06T06:48:56;99604.22;;;6.74;73.69
77321;BME280;66382;52.252;8.780;2024-01-06T06:51:22;99611.81;;;6.77;73.65
77321;BME280;66382;52.252;8.780;2024-01-06T06:53:49;99622.47;;;6.77;73.76
77321;BME280;66382;52.252;8.780;2024-01-06T06:56:14;99620.19;;;6.74;73.72
77321;BME280;66382;52.252;8.780;2024-01-06T06:58:39;99621.22;;;6.73;73.59
77321;BME280;66382;52.252;8.780;2024-01-06T07:01:05;99626.72;;;6.72;73.71
77321;BME280;66382;52.252;8.780;2024-01-06T07:03:30;99625.09;;;6.71;73.79
77321;BME280;66382;52.252;8.780;2024-01-06T07:05:56;99630.59;;;6.69;73.29
77321;BME280;66382;52.252;8.780;2024-01-06T07:08:21;99641.25;;;6.69;73.75
77321;BME280;66382;52.252;8.780;2024-01-06T07:10:48;99641.63;;;6.66;73.29
77321;BME280;66382;52.252;8.780;2024-01-06T07:13:13;99653.09;;;6.66;73.45
77321;BME280;66382;52.252;8.780;2024-01-06T07:15:39;99661.06;;;6.66;73.33
77321;BME280;66382;52.252;8.780;2024-01-06T07:18:04;99663.91;;;6.65;73.02
77321;BME280;66382;52.252;8.780;2024-01-06T07:20:30;99666.41;;;6.66;74.03
77321;BME280;66382;52.252;8.780;2024-01-06T07:22:55;99661.06;;;6.66;73.23
77321;BME280;66382;52.252;8.780;2024-01-06T07:25:20;99674.22;;;6.68;74.02
77321;BME280;66382;52.252;8.780;2024-01-06T07:27:47;99674.41;;;6.66;73.34
77321;BME280;66382;52.252;8.780;2024-01-06T07:30:13;99672.38;;;6.68;73.96
77321;BME280;66382;52.252;8.780;2024-01-06T07:32:38;99680.53;;;6.67;73.38
77321;BME280;66382;52.252;8.780;2024-01-06T07:35:04;99678.91;;;6.66;73.03
77321;BME280;66382;52.252;8.780;2024-01-06T07:37:29;99687.88;;;6.65;73.70
77321;BME280;66382;52.252;8.780;2024-01-06T07:39:55;99694.22;;;6.64;73.61
77321;BME280;66382;52.252;8.780;2024-01-06T07:42:20;99695.06;;;6.64;74.08
77321;BME280;66382;52.252;8.780;2024-01-06T07:44:47;99695.88;;;6.65;73.14
77321;BME280;66382;52.252;8.780;2024-01-06T07:47:13;99701.19;;;6.65;73.34
77321;BME280;66382;52.252;8.780;2024-01-06T07:49:38;99709.56;;;6.62;73.38
77321;BME280;66382;52.252;8.780;2024-01-06T07:52:04;99713.25;;;6.61;73.23
77321;BME280;66382;52.252;8.780;2024-01-06T07:54:30;99707.94;;;6.61;73.17
77321;BME280;66382;52.252;8.780;2024-01-06T07:56:55;99721.25;;;6.61;73.23
77321;BME280;66382;52.252;8.780;2024-01-06T07:59:21;99716.09;;;6.59;73.61
77321;BME280;66382;52.252;8.780;2024-01-06T08:01:48;99721.41;;;6.59;73.78
77321;BME280;66382;52.252;8.780;2024-01-06T08:04:14;99732.25;;;6.58;73.38
77321;BME280;66382;52.252;8.780;2024-01-06T08:06:39;99733.44;;;6.55;73.57
77321;BME280;66382;52.252;8.780;2024-01-06T08:09:05;99744.28;;;6.54;73.20
77321;BME280;66382;52.252;8.780;2024-01-06T08:11:30;99750.41;;;6.54;73.37
77321;BME280;66382;52.252;8.780;2024-01-06T08:13:56;99747.94;;;6.53;73.23
77321;BME280;66382;52.252;8.780;2024-01-06T08:16:21;99750.41;;;6.54;73.30
77321;BME280;66382;52.252;8.780;2024-01-06T08:18:48;99755.75;;;6.54;73.28
77321;BME280;66382;52.252;8.780;2024-01-06T08:21:14;99747.31;;;6.51;73.02
77321;BME280;66382;52.252;8.780;2024-01-06T08:23:39;99758.13;;;6.49;73.78
77321;BME280;66382;52.252;8.780;2024-01-06T08:26:05;99760.13;;;6.47;73.65
77321;BME280;66382;52.252;8.780;2024-01-06T08:28:31;99754.81;;;6.47;72.97
77321;BME280;66382;52.252;8.780;2024-01-06T08:30:56;99768.94;;;6.47;72.90
77321;BME280;66382;52.252;8.780;2024-01-06T08:33:21;99771.00;;;6.45;72.93
77321;BME280;66382;52.252;8.780;2024-01-06T08:35:48;99771.81;;;6.46;72.92
77321;BME280;66382;52.252;8.780;2024-01-06T08:38:14;99776.00;;;6.40;73.37
77321;BME280;66382;52.252;8.780;2024-01-06T08:40:40;99778.50;;;6.42;73.15
77321;BME280;66382;52.252;8.780;2024-01-06T08:43:05;99790.81;;;6.43;73.02
77321;BME280;66382;52.252;8.780;2024-01-06T08:45:30;99790.31;;;6.39;73.57
77321;BME280;66382;52.252;8.780;2024-01-06T08:47:56;99796.97;;;6.43;73.69
77321;BME280;66382;52.252;8.780;2024-01-06T08:50:22;99798.59;;;6.44;73.27
77321;BME280;66382;52.252;8.780;2024-01-06T08:52:48;99800.59;;;6.42;73.45
77321;BME280;66382;52.252;8.780;2024-01-06T08:55:14;99808.59;;;6.42;73.38
77321;BME280;66382;52.252;8.780;2024-01-06T08:57:39;99809.25;;;6.44;73.53
77321;BME280;66382;52.252;8.780;2024-01-06T09:00:06;99816.25;;;6.45;73.32
77321;BME280;66382;52.252;8.780;2024-01-06T09:02:31;99822.09;;;6.41;72.56
77321;BME280;66382;52.252;8.780;2024-01-06T09:04:57;99820.44;;;6.40;73.55
77321;BME280;66382;52.252;8.780;2024-01-06T09:07:22;99828.25;;;6.41;72.95
77321;BME280;66382;52.252;8.780;2024-01-06T09:09:49;99825.75;;;6.40;73.57
77321;BME280;66382;52.252;8.780;2024-01-06T09:12:14;99839.06;;;6.40;73.28
77321;BME280;66382;52.252;8.780;2024-01-06T09:14:40;99844.22;;;6.41;73.40
77321;BME280;66382;52.252;8.780;2024-01-06T09:17:05;99844.88;;;6.43;73.21
77321;BME280;66382;52.252;8.780;2024-01-06T09:19:31;99848.53;;;6.42;73.00
77321;BME280;66382;52.252;8.780;2024-01-06T09:21:56;99848.38;;;6.44;73.80
77321;BME280;66382;52.252;8.780;2024-01-06T09:24:22;99857.19;;;6.44;73.26
77321;BME280;66382;52.252;8.780;2024-01-06T09:26:49;99862.50;;;6.44;73.31
77321;BME280;66382;52.252;8.780;2024-01-06T09:29:14;99863.53;;;6.43;72.91
77321;BME280;66382;52.252;8.780;2024-01-06T09:31:40;99863.03;;;6.40;73.58
77321;BME280;66382;52.252;8.780;2024-01-06T09:34:09;99873.16;;;6.44;73.18
77321;BME280;66382;52.252;8.780;2024-01-06T09:36:34;99875.00;;;6.44;73.82
77321;BME280;66382;52.252;8.780;2024-01-06T09:39:00;99875.81;;;6.44;73.10
77321;BME280;66382;52.252;8.780;2024-01-06T09:41:25;99879.50;;;6.43;73.79
77321;BME280;66382;52.252;8.780;2024-01-06T09:43:52;99888.31;;;6.44;73.87
77321;BME280;66382;52.252;8.780;2024-01-06T09:46:25;99890.97;;;6.44;73.48
77321;BME280;66382;52.252;8.780;2024-01-06T09:48:51;99894.44;;;6.44;73.26
77321;BME280;66382;52.252;8.780;2024-01-06T09:51:18;99895.28;;;6.45;73.71
77321;BME280;66382;52.252;8.780;2024-01-06T09:53:48;99893.47;;;6.45;73.53
77321;BME280;66382;52.252;8.780;2024-01-06T09:56:15;99900.59;;;6.45;73.49
77321;BME280;66382;52.252;8.780;2024-01-06T09:58:41;99912.72;;;6.47;73.33
77321;BME280;66382;52.252;8.780;2024-01-06T10:01:08;99911.75;;;6.49;73.26
77321;BME280;66382;52.252;8.780;2024-01-06T10:03:34;99912.94;;;6.46;73.42
77321;BME280;66382;52.252;8.780;2024-01-06T10:06:00;99920.09;;;6.45;73.41
77321;BME280;66382;52.252;8.780;2024-01-06T10:08:25;99918.41;;;6.44;73.04
77321;BME280;66382;52.252;8.780;2024-01-06T10:10:51;99919.59;;;6.42;73.64
77321;BME280;66382;52.252;8.780;2024-01-06T10:13:17;99921.44;;;6.41;73.19
77321;BME280;66382;52.252;8.780;2024-01-06T10:15:42;99925.59;;;6.44;73.49
77321;BME280;66382;52.252;8.780;2024-01-06T10:18:09;99922.91;;;6.44;73.74
77321;BME280;66382;52.252;8.780;2024-01-06T10:20:35;99924.56;;;6.45;73.22
77321;BME280;66382;52.252;8.780;2024-01-06T10:23:04;99933.56;;;6.44;72.95
77321;BME280;66382;52.252;8.780;2024-01-06T10:25:30;99930.09;;;6.43;73.94
77321;BME280;66382;52.252;8.780;2024-01-06T10:27:56;99931.56;;;6.46;73.75
77321;BME280;66382;52.252;8.780;2024-01-06T10:30:21;99935.06;;;6.46;73.85
77321;BME280;66382;52.252;8.780;2024-01-06T10:32:47;99929.44;;;6.41;73.38
77321;BME280;66382;52.252;8.780;2024-01-06T10:35:13;99935.06;;;6.46;73.18
77321;BME280;66382;52.252;8.780;2024-01-06T10:37:41;99945.72;;;6.46;73.13
77321;BME280;66382;52.252;8.780;2024-01-06T10:40:08;99943.50;;;6.50;73.96
77321;BME280;66382;52.252;8.780;2024-01-06T10:42:34;99943.34;;;6.52;73.53
77321;BME280;66382;52.252;8.780;2024-01-06T10:45:01;99942.31;;;6.53;73.36
77321;BME280;66382;52.252;8.780;2024-01-06T10:47:28;99942.97;;;6.55;73.21
77321;BME280;66382;52.252;8.780;2024-01-06T10:49:54;99942.00;;;6.56;73.62
77321;BME280;66382;52.252;8.780;2024-01-06T10:52:21;99942.66;;;6.58;73.25
77321;BME280;66382;52.252;8.780;2024-01-06T10:54:49;99943.13;;;6.61;73.84
77321;BME280;66382;52.252;8.780;2024-01-06T10:57:15;99949.25;;;6.62;73.55
77321;BME280;66382;52.252;8.780;2024-01-06T10:59:42;99945.94;;;6.60;73.67
77321;BME280;66382;52.252;8.780;2024-01-06T11:02:10;99949.25;;;6.62;73.63
77321;BME280;66382;52.252;8.780;2024-01-06T11:04:36;99952.75;;;6.62;73.36
77321;BME280;66382;52.252;8.780;2024-01-06T11:07:02;99951.75;;;6.63;73.45
77321;BME280;66382;52.252;8.780;2024-01-06T11:09:32;99955.25;;;6.64;74.06
77321;BME280;66382;52.252;8.780;2024-01-06T11:12:00;99954.06;;;6.66;73.55
77321;BME280;66382;52.252;8.780;2024-01-06T11:14:27;99956.91;;;6.65;73.29
77321;BME280;66382;52.252;8.780;2024-01-06T11:16:53;99951.94;;;6.62;73.18
77321;BME280;66382;52.252;8.780;2024-01-06T11:19:46;99955.63;;;6.61;73.46
77321;BME280;66382;52.252;8.780;2024-01-06T11:22:24;99952.44;;;6.57;73.04
77321;BME280;66382;52.252;8.780;2024-01-06T11:24:52;99955.13;;;6.57;73.61
77321;BME280;66382;52.252;8.780;2024-01-06T11:27:18;99954.50;;;6.55;74.03
77321;BME280;66382;52.252;8.780;2024-01-06T11:29:44;99948.31;;;6.55;73.16
77321;BME280;66382;52.252;8.780;2024-01-06T11:32:17;99952.44;;;6.57;73.38
77321;BME280;66382;52.252;8.780;2024-01-06T11:34:47;99946.31;;;6.57;73.23
77321;BME280;66382;52.252;8.780;2024-01-06T11:37:13;99952.28;;;6.59;73.44
77321;BME280;66382;52.252;8.780;2024-01-06T11:39:41;99950.44;;;6.59;73.50
77321;BME280;66382;52.252;8.780;2024-01-06T11:42:09;99946.81;;;6.52;73.74
77321;BME280;66382;52.252;8.780;2024-01-06T11:44:36;99958.28;;;6.61;73.77
77321;BME280;66382;52.252;8.780;2024-01-06T11:47:02;99935.34;;;6.52;72.98
77321;BME280;66382;52.252;8.780;2024-01-06T11:49:29;99957.44;;;6.60;73.87
77321;BME280;66382;52.252;8.780;2024-01-06T11:51:56;99947.63;;;6.61;73.63
77321;BME280;66382;52.252;8.780;2024-01-06T11:54:21;99952.94;;;6.61;73.01
77321;BME280;66382;52.252;8.780;2024-01-06T11:56:47;99930.19;;;6.50;73.07
77321;BME280;66382;52.252;8.780;2024-01-06T11:59:13;99938.97;;;6.59;73.34
77321;BME280;66382;52.252;8.780;2024-01-06T12:01:39;99949.25;;;6.62;73.94
77321;BME280;66382;52.252;8.780;2024-01-06T12:04:06;99951.94;;;6.62;73.42
77321;BME280;66382;52.252;8.780;2024-01-06T12:06:31;99951.75;;;6.63;73.11
77321;BME280;66382;52.252;8.780;2024-01-06T12:09:03;99948.91;;;6.65;73.35
77321;BME280;66382;52.252;8.780;2024-01-06T12:11:29;99954.22;;;6.65;73.65
77321;BME280;66382;52.252;8.780;2024-01-06T12:13:55;99959.75;;;6.63;73.69
77321;BME280;66382;52.252;8.780;2024-01-06T12:16:22;99956.28;;;6.63;73.00
77321;BME280;66382;52.252;8.780;2024-01-06T12:18:47;99960.94;;;6.61;73.75
77321;BME280;66382;52.252;8.780;2024-01-06T12:21:13;99968.09;;;6.60;73.17
77321;BME280;66382;52.252;8.780;2024-01-06T12:23:38;99967.97;;;6.54;73.37
77321;BME280;66382;52.252;8.780;2024-01-06T12:26:04;99971.81;;;6.51;73.06
77321;BME280;66382;52.252;8.780;2024-01-06T12:28:29;99972.16;;;6.48;73.51
77321;BME280;66382;52.252;8.780;2024-01-06T12:30:55;99969.38;;;6.41;72.78
77321;BME280;66382;52.252;8.780;2024-01-06T12:33:21;99963.94;;;6.27;72.67
77321;BME280;66382;52.252;8.780;2024-01-06T12:35:47;99967.84;;;6.16;72.66
77321;BME280;66382;52.252;8.780;2024-01-06T12:38:12;99963.59;;;5.98;72.75
77321;BME280;66382;52.252;8.780;2024-01-06T12:40:38;99977.19;;;5.95;72.42
77321;BME280;66382;52.252;8.780;2024-01-06T12:43:04;99977.22;;;5.87;72.65
77321;BME280;66382;52.252;8.780;2024-01-06T12:45:29;99979.72;;;5.80;73.18
77321;BME280;66382;52.252;8.780;2024-01-06T12:47:55;99986.19;;;5.78;73.01
77321;BME280;66382;52.252;8.780;2024-01-06T12:50:21;99984.03;;;5.73;73.27
77321;BME280;66382;52.252;8.780;2024-01-06T12:52:47;99987.38;;;5.75;73.20
77321;BME280;66382;52.252;8.780;2024-01-06T12:55:12;99987.22;;;5.77;73.35
77321;BME280;66382;52.252;8.780;2024-01-06T12:57:38;99987.03;;;5.78;73.45
77321;BME280;66382;52.252;8.780;2024-01-06T13:00:05;99995.84;;;5.79;73.65
77321;BME280;66382;52.252;8.780;2024-01-06T13:02:30;99991.53;;;5.78;73.31